Time;durP1;ratioP1;P1;durP2;ratioP2;P2;SDS_P1;SDS_P2;PMS_P1;PMS_P2;Temp;Humidity;BMP_temperature;BMP_pressure;BME280_temperature;BME280_humidity;BME280_pressure;Samples;Min_cycle;Max_cycle;Signal;HPM_P1;HPM_P2
2021/07/07 00:01:38;;;;;;;6.35;2.10;;;20.20;68.80;;;;;;5084253;28;20071;-71
2021/07/07 00:04:04;;;;;;;7.13;1.98;;;20.20;69.40;;;;;;5094913;28;20044;-72
2021/07/07 00:06:30;;;;;;;6.78;2.25;;;20.20;68.90;;;;;;5095808;28;20044;-71
2021/07/07 00:08:56;;;;;;;7.57;2.30;;;20.20;68.80;;;;;;5095535;28;20055;-71
2021/07/07 00:11:22;;;;;;;7.00;2.20;;;20.20;69.00;;;;;;5095813;28;20051;-72
2021/07/07 00:13:48;;;;;;;7.95;2.03;;;20.20;69.00;;;;;;5095781;28;20062;-71
2021/07/07 00:16:13;;;;;;;11.48;2.50;;;20.20;69.00;;;;;;5095715;28;20040;-70
2021/07/07 00:18:39;;;;;;;7.38;2.40;;;20.20;68.90;;;;;;5095579;28;20040;-71
2021/07/07 00:21:07;;;;;;;7.53;2.15;;;20.20;68.90;;;;;;5111196;28;20039;-71
2021/07/07 00:23:33;;;;;;;6.32;2.15;;;20.20;69.00;;;;;;5095393;28;20355;-71
2021/07/07 00:26:00;;;;;;;5.20;2.05;;;20.20;69.00;;;;;;5095706;28;20036;-71
2021/07/07 00:28:25;;;;;;;9.77;2.67;;;20.10;69.00;;;;;;5095442;28;20078;-71
2021/07/07 00:30:53;;;;;;;5.82;2.08;;;20.10;69.00;;;;;;5085094;28;20041;-73
2021/07/07 00:33:19;;;;;;;7.57;2.05;;;20.10;69.00;;;;;;5075247;28;20055;-71
2021/07/07 00:35:46;;;;;;;8.27;2.40;;;20.10;69.00;;;;;;5074881;28;20047;-71
2021/07/07 00:38:13;;;;;;;5.88;2.13;;;20.10;69.00;;;;;;5075175;28;20071;-71
2021/07/07 00:40:42;;;;;;;6.95;2.38;;;20.10;68.90;;;;;;5075281;28;20040;-71
2021/07/07 00:43:10;;;;;;;7.80;2.00;;;20.10;68.90;;;;;;5075104;28;20044;-72
2021/07/07 00:45:36;;;;;;;8.27;2.08;;;20.10;68.90;;;;;;5075602;28;20044;-72
2021/07/07 00:48:02;;;;;;;7.10;2.47;;;20.10;69.00;;;;;;5074634;28;20051;-72
2021/07/07 00:50:28;;;;;;;7.93;2.40;;;20.10;69.00;;;;;;5074825;28;20123;-72
2021/07/07 00:52:57;;;;;;;8.13;2.13;;;20.10;69.00;;;;;;5074707;28;20140;-71
2021/07/07 00:55:24;;;;;;;8.30;2.15;;;20.10;69.00;;;;;;5074762;28;20398;-71
2021/07/07 00:57:50;;;;;;;6.00;2.13;;;20.10;69.00;;;;;;5075393;28;20044;-70
2021/07/07 01:00:24;;;;;;;5.53;2.30;;;20.10;69.10;;;;;;5079355;28;20587;-72
2021/07/07 01:02:53;;;;;;;10.05;2.22;;;20.10;69.10;;;;;;5094865;28;20439;-71
2021/07/07 01:05:19;;;;;;;8.57;2.15;;;20.10;69.10;;;;;;5095086;28;20058;-72
2021/07/07 01:07:45;;;;;;;6.93;2.05;;;20.10;69.00;;;;;;5095357;28;20044;-71
2021/07/07 01:10:13;;;;;;;8.80;1.98;;;20.10;69.10;;;;;;5094468;28;20433;-71
2021/07/07 01:12:40;;;;;;;5.90;2.10;;;20.00;68.90;;;;;;5094842;28;20052;-71
2021/07/07 01:15:09;;;;;;;8.82;2.42;;;20.00;69.00;;;;;;5094978;28;20055;-71
2021/07/07 01:17:36;;;;;;;5.30;1.60;;;20.00;69.00;;;;;;5094929;28;20083;-71
2021/07/07 01:20:12;;;;;;;5.63;1.70;;;20.00;69.10;;;;;;5095207;28;20404;-71
2021/07/07 01:22:38;;;;;;;8.10;2.00;;;20.00;69.10;;;;;;5094958;28;20071;-72
2021/07/07 01:25:06;;;;;;;7.65;1.67;;;20.00;69.20;;;;;;5094980;28;20063;-71
2021/07/07 01:27:33;;;;;;;7.40;2.30;;;20.00;69.20;;;;;;5094532;28;20082;-71
2021/07/07 01:29:59;;;;;;;5.80;2.05;;;20.00;69.10;;;;;;5089314;28;20459;-72
2021/07/07 01:32:25;;;;;;;6.47;1.75;;;20.00;69.20;;;;;;5075299;28;20119;-72
2021/07/07 01:34:51;;;;;;;4.85;2.03;;;20.00;69.30;;;;;;5078214;28;20048;-71
2021/07/07 01:37:17;;;;;;;6.15;1.73;;;20.00;69.30;;;;;;5078995;28;20166;-71
2021/07/07 01:39:43;;;;;;;4.13;1.63;;;20.00;69.40;;;;;;5078135;28;20048;-72
2021/07/07 01:42:09;;;;;;;7.97;1.88;;;20.00;69.20;;;;;;5078428;28;20066;-71
2021/07/07 01:44:35;;;;;;;4.80;1.23;;;20.00;69.30;;;;;;5078368;28;20434;-71
2021/07/07 01:47:03;;;;;;;5.32;1.75;;;20.00;69.20;;;;;;5077947;28;20109;-72
2021/07/07 01:49:29;;;;;;;5.35;1.92;;;20.00;69.10;;;;;;5078195;28;20051;-71
2021/07/07 01:51:55;;;;;;;6.80;1.88;;;20.00;69.20;;;;;;5078728;28;20150;-73
2021/07/07 01:54:21;;;;;;;3.88;1.70;;;20.00;69.20;;;;;;5077874;28;20040;-72
2021/07/07 01:56:47;;;;;;;6.07;1.77;;;20.00;69.20;;;;;;5078187;28;20398;-73
2021/07/07 01:59:13;;;;;;;4.70;1.60;;;19.90;69.20;;;;;;5077779;28;20504;-70
2021/07/07 02:01:39;;;;;;;5.85;1.75;;;20.00;69.20;;;;;;5077264;28;20127;-71
2021/07/07 02:04:04;;;;;;;6.97;2.05;;;20.00;69.10;;;;;;5077898;28;20455;-71
2021/07/07 02:06:30;;;;;;;4.97;1.80;;;19.90;69.10;;;;;;5078012;28;20048;-71
2021/07/07 02:08:59;;;;;;;5.60;1.80;;;19.90;69.20;;;;;;5077825;28;20045;-71
2021/07/07 02:11:25;;;;;;;3.70;1.15;;;19.90;69.30;;;;;;5077483;28;20120;-72
2021/07/07 02:13:51;;;;;;;3.60;1.33;;;20.00;69.30;;;;;;5077434;28;20371;-72
2021/07/07 02:16:18;;;;;;;4.97;1.50;;;19.90;69.30;;;;;;5077660;28;20338;-71
2021/07/07 02:18:44;;;;;;;5.78;1.63;;;19.90;69.30;;;;;;5077602;28;20053;-72
2021/07/07 02:21:10;;;;;;;5.40;1.67;;;19.90;69.30;;;;;;5077459;28;20044;-73
2021/07/07 02:23:36;;;;;;;6.57;1.48;;;19.90;69.30;;;;;;5078159;28;20044;-72
2021/07/07 02:26:02;;;;;;;4.43;1.73;;;19.90;69.30;;;;;;5077313;28;20051;-73
2021/07/07 02:28:29;;;;;;;6.65;2.08;;;19.90;69.40;;;;;;5077580;28;20040;-72
2021/07/07 02:30:56;;;;;;;6.07;2.15;;;19.90;69.30;;;;;;5077384;28;20086;-71
2021/07/07 02:33:23;;;;;;;5.80;1.92;;;19.90;69.30;;;;;;5077314;28;20056;-72
2021/07/07 02:35:49;;;;;;;4.90;1.70;;;19.90;69.40;;;;;;5077037;28;20044;-71
2021/07/07 02:38:19;;;;;;;4.07;1.10;;;19.90;69.30;;;;;;5077423;28;20056;-72
2021/07/07 02:40:46;;;;;;;6.28;1.52;;;19.90;69.40;;;;;;5077045;28;20040;-71
2021/07/07 02:43:12;;;;;;;4.07;1.42;;;19.90;69.40;;;;;;5076747;28;20040;-71
2021/07/07 02:45:41;;;;;;;4.80;1.20;;;19.90;69.40;;;;;;5077043;28;20041;-72
2021/07/07 02:48:08;;;;;;;4.10;1.00;;;19.90;69.50;;;;;;5092698;28;20101;-71
2021/07/07 02:50:36;;;;;;;3.28;1.40;;;19.90;70.10;;;;;;5076866;28;20048;-72
2021/07/07 02:53:02;;;;;;;5.43;1.70;;;19.90;69.50;;;;;;5087421;28;20040;-72
2021/07/07 02:55:28;;;;;;;6.15;1.65;;;19.90;69.50;;;;;;5097152;28;20111;-70
2021/07/07 02:58:04;;;;;;;3.67;1.02;;;19.90;69.50;;;;;;5096985;28;20048;-71
2021/07/07 03:00:36;;;;;;;4.38;1.55;;;19.90;69.50;;;;;;5096958;28;20047;-71
2021/07/07 03:03:07;;;;;;;5.20;1.67;;;19.90;69.50;;;;;;5112903;28;20068;-72
2021/07/07 03:05:35;;;;;;;2.67;1.25;;;19.90;69.50;;;;;;5096708;28;20043;-72
2021/07/07 03:08:02;;;;;;;4.97;1.40;;;19.90;69.50;;;;;;5096815;28;20499;-72
2021/07/07 03:10:28;;;;;;;3.60;1.20;;;19.90;69.40;;;;;;5096682;28;20111;-71
2021/07/07 03:12:54;;;;;;;3.50;1.15;;;19.90;69.40;;;;;;5096236;28;20056;-71
2021/07/07 03:15:20;;;;;;;4.32;1.30;;;19.90;69.40;;;;;;5096504;28;20048;-72
2021/07/07 03:17:46;;;;;;;3.70;1.10;;;19.90;69.40;;;;;;5096817;28;20054;-72
2021/07/07 03:20:13;;;;;;;4.57;1.63;;;19.90;69.40;;;;;;5096938;28;20105;-71
2021/07/07 03:22:39;;;;;;;3.50;1.58;;;19.90;69.40;;;;;;5085889;28;20055;-72
2021/07/07 03:25:06;;;;;;;4.10;1.45;;;19.90;69.40;;;;;;5076006;28;20451;-72
2021/07/07 03:27:32;;;;;;;3.08;1.30;;;19.90;69.50;;;;;;5076472;28;20036;-71
2021/07/07 03:29:58;;;;;;;2.88;1.17;;;19.90;69.50;;;;;;5076151;28;20478;-72
2021/07/07 03:32:24;;;;;;;3.75;1.42;;;19.90;69.50;;;;;;5076233;28;20048;-72
2021/07/07 03:34:50;;;;;;;3.95;1.50;;;19.90;69.50;;;;;;5092150;28;20058;-71
2021/07/07 03:37:16;;;;;;;3.47;1.60;;;19.80;69.50;;;;;;5075558;28;20052;-72
2021/07/07 03:39:42;;;;;;;6.72;1.38;;;19.90;69.50;;;;;;5075937;28;20040;-72
2021/07/07 03:42:08;;;;;;;4.30;1.85;;;19.80;69.50;;;;;;5075947;28;20041;-72
2021/07/07 03:44:33;;;;;;;3.15;1.42;;;19.80;70.10;;;;;;5076109;28;20040;-71
2021/07/07 03:46:59;;;;;;;3.63;1.63;;;19.80;69.50;;;;;;5075918;28;20100;-71
2021/07/07 03:49:25;;;;;;;3.25;1.10;;;19.80;69.50;;;;;;5076039;28;20072;-72
2021/07/07 03:51:51;;;;;;;3.58;1.30;;;19.80;69.60;;;;;;5078418;28;20462;-72
2021/07/07 03:54:17;;;;;;;4.25;1.10;;;19.80;69.50;;;;;;5096046;28;20145;-71
2021/07/07 03:56:43;;;;;;;3.95;1.27;;;19.80;69.50;;;;;;5096072;28;20051;-72
2021/07/07 03:59:09;;;;;;;3.42;1.17;;;19.80;69.50;;;;;;5096069;28;20043;-71
2021/07/07 04:01:35;;;;;;;2.90;1.40;;;19.80;69.50;;;;;;5089325;28;20044;-73
2021/07/07 04:04:00;;;;;;;3.13;1.30;;;19.80;69.50;;;;;;5075512;28;20059;-71
2021/07/07 04:06:26;;;;;;;4.50;1.27;;;19.80;69.50;;;;;;5075713;28;20056;-71
2021/07/07 04:08:52;;;;;;;2.30;1.00;;;19.80;69.50;;;;;;5075656;28;20048;-72
2021/07/07 04:11:18;;;;;;;3.42;1.45;;;19.80;69.50;;;;;;5075598;28;20048;-72
2021/07/07 04:13:43;;;;;;;2.33;1.17;;;19.80;69.50;;;;;;5074911;28;20148;-71
2021/07/07 04:16:10;;;;;;;3.15;1.25;;;19.80;69.40;;;;;;5075168;28;20051;-71
2021/07/07 04:18:35;;;;;;;3.50;1.15;;;19.80;69.50;;;;;;5075562;28;20056;-73
2021/07/07 04:21:01;;;;;;;5.13;1.48;;;19.80;69.40;;;;;;5074921;28;20044;-72
2021/07/07 04:23:27;;;;;;;4.72;1.45;;;19.80;69.50;;;;;;5075519;28;20056;-72
2021/07/07 04:25:53;;;;;;;3.28;1.27;;;19.80;69.40;;;;;;5075155;28;20044;-71
2021/07/07 04:28:18;;;;;;;2.60;1.13;;;19.80;69.40;;;;;;5075268;28;20044;-72
2021/07/07 04:30:45;;;;;;;5.50;1.60;;;19.80;69.40;;;;;;5083961;28;20059;-71
2021/07/07 04:33:12;;;;;;;3.95;1.38;;;19.80;69.20;;;;;;5092184;28;20044;-71
2021/07/07 04:35:37;;;;;;;2.13;0.88;;;19.80;69.20;;;;;;5084893;28;20089;-72
2021/07/07 04:38:04;;;;;;;2.10;1.00;;;19.80;69.80;;;;;;5095120;28;20256;-71
2021/07/07 04:40:31;;;;;;;2.65;1.20;;;19.80;69.20;;;;;;5078578;28;20476;-72
2021/07/07 04:42:57;;;;;;;9.18;1.65;;;19.70;69.10;;;;;;5075274;28;20094;-71
2021/07/07 04:45:22;;;;;;;6.53;2.25;;;19.70;69.20;;;;;;5075138;28;20076;-73
2021/07/07 04:47:48;;;;;;;5.80;1.27;;;19.70;69.30;;;;;;5074655;28;20098;-71
2021/07/07 04:50:16;;;;;;;3.03;1.58;;;19.70;69.30;;;;;;5075238;28;20049;-71
2021/07/07 04:52:43;;;;;;;5.20;1.65;;;19.60;69.30;;;;;;5091805;28;20056;-73
2021/07/07 04:55:11;;;;;;;4.57;1.90;;;19.60;69.40;;;;;;5095200;28;20048;-72
2021/07/07 04:57:40;;;;;;;4.68;1.92;;;19.60;69.60;;;;;;5095348;28;20040;-72
2021/07/07 05:00:19;;;;;;;4.07;1.90;;;19.60;70.00;;;;;;5094797;28;20044;-81
2021/07/07 05:02:46;;;;;;;5.78;1.70;;;19.70;69.90;;;;;;5094252;28;20395;-73
2021/07/07 05:05:15;;;;;;;6.47;2.20;;;19.70;69.40;;;;;;5094686;28;20467;-73
2021/07/07 05:07:42;;;;;;;5.03;2.40;;;19.70;69.10;;;;;;5096562;28;20455;-76
2021/07/07 05:10:08;;;;;;;6.30;2.67;;;19.70;68.80;;;;;;5099281;28;20508;-74
2021/07/07 05:12:35;;;;;;;6.65;2.53;;;19.70;68.50;;;;;;5098354;28;20051;-75
2021/07/07 05:15:01;;;;;;;5.43;3.22;;;19.70;68.40;;;;;;5099097;28;20112;-74
2021/07/07 05:17:28;;;;;;;6.95;3.15;;;19.70;68.60;;;;;;5099374;28;20073;-77
2021/07/07 05:19:56;;;;;;;6.07;3.13;;;19.70;66.90;;;;;;5098603;28;20054;-76
2021/07/07 05:22:22;;;;;;;5.32;3.08;;;19.70;66.10;;;;;;5098858;28;20093;-77
2021/07/07 05:24:48;;;;;;;6.20;2.75;;;19.60;65.80;;;;;;5098907;28;20055;-75
2021/07/07 05:27:14;;;;;;;4.93;2.60;;;19.50;65.70;;;;;;5098996;28;20058;-73
2021/07/07 05:29:40;;;;;;;5.85;2.92;;;19.50;65.70;;;;;;5097738;28;20064;-70
2021/07/07 05:32:07;;;;;;;6.28;2.60;;;19.40;66.00;;;;;;5098687;28;20075;-75
2021/07/07 05:34:35;;;;;;;7.68;2.53;;;19.40;66.40;;;;;;5089425;28;20064;-77
2021/07/07 05:37:01;;;;;;;6.35;2.30;;;19.30;66.70;;;;;;5078334;28;20439;-74
2021/07/07 05:39:27;;;;;;;6.28;2.92;;;19.30;67.00;;;;;;5094036;28;20048;-74
2021/07/07 05:41:53;;;;;;;5.70;2.22;;;19.30;67.00;;;;;;5078420;28;20110;-75
2021/07/07 05:44:19;;;;;;;5.38;2.08;;;19.30;67.20;;;;;;5078038;28;20040;-74
2021/07/07 05:46:45;;;;;;;4.57;2.10;;;19.30;67.60;;;;;;5077714;28;20071;-75
2021/07/07 05:49:11;;;;;;;6.60;2.33;;;19.30;67.90;;;;;;5078609;28;20048;-76
2021/07/07 05:51:38;;;;;;;5.65;2.28;;;19.30;68.10;;;;;;5078136;28;20049;-73
2021/07/07 05:54:04;;;;;;;7.53;2.13;;;19.40;68.30;;;;;;5091199;28;20142;-74
2021/07/07 05:56:30;;;;;;;7.00;2.42;;;19.40;68.30;;;;;;5098017;28;20347;-74
2021/07/07 05:58:56;;;;;;;4.75;1.85;;;19.40;68.20;;;;;;5097893;28;20047;-74
2021/07/07 06:01:22;;;;;;;6.70;2.08;;;19.40;68.20;;;;;;5097814;28;20058;-74
2021/07/07 06:03:47;;;;;;;8.55;1.70;;;19.50;68.30;;;;;;5098156;28;20040;-74
2021/07/07 06:06:13;;;;;;;9.10;2.08;;;19.50;68.30;;;;;;5098072;28;20459;-72
2021/07/07 06:08:39;;;;;;;12.90;2.45;;;19.60;68.50;;;;;;5097812;28;20043;-72
2021/07/07 06:11:05;;;;;;;8.23;1.92;;;19.60;68.60;;;;;;5098180;28;20044;-72
2021/07/07 06:13:31;;;;;;;14.43;3.25;;;19.60;68.60;;;;;;5097584;28;20374;-74
2021/07/07 06:15:56;;;;;;;13.30;2.85;;;19.60;68.90;;;;;;5097904;28;20036;-72
2021/07/07 06:18:22;;;;;;;9.55;3.30;;;19.60;68.50;;;;;;5111892;28;20066;-74
2021/07/07 06:20:48;;;;;;;5.47;2.22;;;19.60;68.30;;;;;;5091653;28;20040;-76
2021/07/07 06:23:14;;;;;;;6.20;2.55;;;19.60;68.30;;;;;;5082500;28;20043;-77
2021/07/07 06:25:40;;;;;;;6.78;2.47;;;19.50;68.40;;;;;;5081323;28;20045;-74
2021/07/07 06:28:06;;;;;;;4.22;2.00;;;19.50;68.40;;;;;;5095083;28;20066;-75
2021/07/07 06:30:33;;;;;;;6.55;2.00;;;19.50;68.40;;;;;;5097397;28;20053;-76
2021/07/07 06:33:02;;;;;;;6.03;1.95;;;19.50;68.60;;;;;;5097647;28;20047;-75
2021/07/07 06:35:34;;;;;;;6.95;2.47;;;19.40;68.70;;;;;;5096186;28;20052;-75
2021/07/07 06:38:00;;;;;;;5.00;1.80;;;19.40;69.00;;;;;;5087978;28;20060;-74
2021/07/07 06:40:27;;;;;;;5.20;2.30;;;19.50;69.10;;;;;;5076780;28;20418;-75
2021/07/07 06:42:54;;;;;;;5.53;1.65;;;19.50;69.20;;;;;;5089990;28;20401;-75
2021/07/07 06:45:22;;;;;;;3.85;1.60;;;19.50;69.00;;;;;;5097334;28;20435;-75
2021/07/07 06:47:49;;;;;;;4.28;1.73;;;19.50;69.20;;;;;;5090718;28;20071;-73
2021/07/07 06:50:16;;;;;;;6.70;1.80;;;19.60;69.20;;;;;;5094886;28;20051;-73
2021/07/07 06:52:42;;;;;;;4.40;1.83;;;19.60;69.20;;;;;;5089628;28;20132;-77
2021/07/07 06:55:09;;;;;;;4.03;1.48;;;19.60;69.40;;;;;;5097197;28;20044;-74
2021/07/07 06:57:36;;;;;;;6.88;2.08;;;19.60;69.40;;;;;;5112600;28;20130;-74
2021/07/07 07:00:11;;;;;;;7.93;1.85;;;19.70;69.50;;;;;;5092252;28;20051;-76
2021/07/07 07:02:37;;;;;;;6.95;1.73;;;19.70;69.30;;;;;;5076471;28;20463;-74
2021/07/07 07:05:05;;;;;;;6.25;1.55;;;19.80;69.00;;;;;;5076722;28;20451;-74
2021/07/07 07:07:31;;;;;;;9.30;2.38;;;19.80;69.10;;;;;;5076089;28;20037;-77
2021/07/07 07:09:59;;;;;;;4.63;1.38;;;19.80;68.80;;;;;;5078190;28;20048;-75
2021/07/07 07:12:26;;;;;;;7.55;1.67;;;19.80;68.80;;;;;;5093877;28;20374;-74
2021/07/07 07:14:53;;;;;;;5.13;1.60;;;19.90;69.60;;;;;;5094250;28;20130;-75
2021/07/07 07:17:26;;;;;;;5.05;1.58;;;19.90;68.80;;;;;;5076252;28;20046;-77
2021/07/07 07:19:52;;;;;;;4.50;1.75;;;19.90;68.10;;;;;;5076177;28;20452;-76
2021/07/07 07:22:18;;;;;;;4.63;1.50;;;20.00;68.10;;;;;;5076008;28;20056;-77
2021/07/07 07:24:45;;;;;;;4.20;1.58;;;20.00;68.00;;;;;;5076334;28;20585;-76
2021/07/07 07:27:11;;;;;;;7.13;1.98;;;20.00;67.40;;;;;;5075746;28;20131;-76
2021/07/07 07:29:39;;;;;;;4.15;1.70;;;19.90;67.30;;;;;;5082608;28;20058;-76
2021/07/07 07:32:06;;;;;;;8.48;1.80;;;19.90;67.80;;;;;;5085942;28;20373;-76
2021/07/07 07:34:33;;;;;;;6.50;1.75;;;19.80;68.10;;;;;;5075892;28;20336;-77
2021/07/07 07:37:02;;;;;;;8.07;2.00;;;19.90;68.10;;;;;;5075844;28;20056;-76
2021/07/07 07:39:30;;;;;;;3.83;1.40;;;19.80;67.80;;;;;;5075655;28;20041;-75
2021/07/07 07:42:02;;;;;;;5.93;1.63;;;19.80;67.90;;;;;;5076213;28;20041;-76
2021/07/07 07:44:28;;;;;;;5.40;1.30;;;19.80;68.40;;;;;;5092526;28;20394;-73
2021/07/07 07:46:56;;;;;;;4.63;1.30;;;19.80;68.50;;;;;;5083193;28;20094;-73
2021/07/07 07:49:22;;;;;;;5.70;1.77;;;19.80;68.50;;;;;;5092129;28;20114;-74
2021/07/07 07:51:49;;;;;;;4.47;1.58;;;19.80;68.50;;;;;;5077543;28;20086;-75
2021/07/07 07:54:17;;;;;;;5.75;1.35;;;19.90;68.80;;;;;;5095702;28;20048;-73
2021/07/07 07:56:44;;;;;;;6.07;1.20;;;19.90;68.80;;;;;;5090476;28;20052;-73
2021/07/07 07:59:10;;;;;;;5.80;1.55;;;19.90;68.80;;;;;;5075478;28;20135;-71
2021/07/07 08:01:36;;;;;;;9.80;1.85;;;19.90;68.70;;;;;;5081789;28;20150;-74
2021/07/07 08:04:03;;;;;;;5.07;1.42;;;19.90;68.70;;;;;;5075179;28;20127;-75
2021/07/07 08:06:31;;;;;;;5.72;1.60;;;20.00;68.70;;;;;;5075709;28;20058;-75
2021/07/07 08:08:58;;;;;;;4.55;2.10;;;20.00;68.40;;;;;;5082950;28;20455;-74
2021/07/07 08:11:25;;;;;;;4.97;1.90;;;20.10;68.20;;;;;;5075613;28;20044;-74
2021/07/07 08:13:52;;;;;;;8.65;1.80;;;20.00;68.30;;;;;;5074043;28;20064;-73
2021/07/07 08:16:20;;;;;;;8.57;1.77;;;20.00;68.50;;;;;;5074923;28;20063;-77
2021/07/07 08:18:46;;;;;;;4.43;2.00;;;20.00;68.60;;;;;;5094443;28;20040;-73
2021/07/07 08:21:13;;;;;;;5.15;1.88;;;20.00;68.40;;;;;;5093810;28;20048;-74
2021/07/07 08:23:39;;;;;;;6.75;1.55;;;20.00;68.60;;;;;;5089387;28;20462;-73
2021/07/07 08:26:05;;;;;;;3.58;1.65;;;20.00;68.40;;;;;;5074205;28;20044;-73
2021/07/07 08:28:31;;;;;;;5.90;1.35;;;20.00;68.20;;;;;;5092281;28;20404;-74
2021/07/07 08:31:17;;;;;;;7.00;1.50;;;20.00;68.50;;;;;;5093644;28;20499;-74
2021/07/07 08:33:42;;;;;;;4.78;1.30;;;20.00;68.90;;;;;;5081197;28;20171;-74
2021/07/07 08:36:09;;;;;;;7.10;1.77;;;20.00;69.00;;;;;;5082010;28;20040;-73
2021/07/07 08:38:35;;;;;;;5.65;1.50;;;20.00;69.20;;;;;;5094586;28;20051;-74
2021/07/07 08:41:00;;;;;;;6.10;1.45;;;20.00;69.20;;;;;;5093764;28;20109;-73
2021/07/07 08:43:26;;;;;;;4.65;1.55;;;20.00;69.30;;;;;;5077761;28;20064;-74
2021/07/07 08:45:56;;;;;;;5.15;1.63;;;20.10;69.40;;;;;;5073837;28;20052;-77
2021/07/07 08:48:22;;;;;;;5.57;1.67;;;20.10;69.50;;;;;;5074112;28;20095;-74
2021/07/07 08:50:48;;;;;;;5.07;1.52;;;20.10;69.70;;;;;;5073950;28;20048;-74
2021/07/07 08:53:16;;;;;;;6.65;1.67;;;20.10;69.70;;;;;;5091541;28;20467;-75
2021/07/07 08:55:47;;;;;;;4.68;1.80;;;20.10;69.80;;;;;;5093544;28;20048;-74
2021/07/07 08:58:14;;;;;;;3.72;1.55;;;20.10;69.80;;;;;;5094159;28;20044;-75
2021/07/07 09:00:40;;;;;;;4.75;1.88;;;20.10;69.80;;;;;;5093726;28;20044;-75
2021/07/07 09:03:09;;;;;;;5.03;1.90;;;20.10;69.80;;;;;;5083954;28;20049;-74
2021/07/07 09:06:03;;;;;;;6.20;1.50;;;20.10;69.80;;;;;;5074212;28;20396;-75
2021/07/07 09:08:45;;;;;;;5.97;1.98;;;20.10;69.80;;;;;;5079131;28;20072;-73
2021/07/07 09:11:29;;;;;;;5.68;1.85;;;20.10;69.80;;;;;;5073709;28;20079;-75
2021/07/07 09:14:07;;;;;;;5.68;1.85;;;20.20;70.00;;;;;;5033307;28;1141677;-83
2021/07/07 09:16:45;;;;;;;6.80;1.83;;;20.30;70.30;;;;;;5075486;28;20465;-77
2021/07/07 09:19:20;;;;;;;5.28;2.03;;;20.30;69.60;;;;;;5085171;28;20044;-77
2021/07/07 09:21:53;;;;;;;;;;;20.30;69.70;;;;;;5095478;28;20051;-77
2021/07/07 09:24:42;;;;;;;6.55;1.52;;;20.30;69.60;;;;;;5074178;28;19920;-76
2021/07/07 09:27:35;;;;;;;3.65;1.67;;;20.30;70.00;;;;;;5087495;28;20140;-75
2021/07/07 09:30:21;;;;;;;6.22;1.83;;;20.30;69.70;;;;;;5073695;28;20044;-78
2021/07/07 09:33:10;;;;;;;5.68;2.03;;;20.30;69.60;;;;;;5073906;28;20156;-75
2021/07/07 09:35:41;;;;;;;7.53;2.20;;;20.30;69.90;;;;;;5086449;28;20044;-79
2021/07/07 09:38:09;;;;;;;9.05;1.90;;;20.40;70.10;;;;;;5077509;28;20052;-75
2021/07/07 09:40:41;;;;;;;3.88;1.75;;;20.50;69.90;;;;;;5094657;28;20116;-75
2021/07/07 09:43:29;;;;;;;5.88;2.00;;;20.50;69.80;;;;;;5095871;28;20048;-74
2021/07/07 09:46:06;;;;;;;4.05;1.90;;;20.50;69.90;;;;;;5091467;28;20052;-76
2021/07/07 09:48:37;;;;;;;6.47;1.88;;;20.50;69.80;;;;;;5091152;28;20058;-76
2021/07/07 09:51:04;;;;;;;7.90;1.98;;;20.60;68.50;;;;;;5094431;28;20077;-73
2021/07/07 09:53:30;;;;;;;5.07;1.95;;;20.60;68.40;;;;;;5095695;28;20048;-75
2021/07/07 09:55:57;;;;;;;4.25;1.83;;;20.60;68.20;;;;;;5097870;28;20048;-75
2021/07/07 09:58:23;;;;;;;7.55;2.00;;;20.60;67.90;;;;;;5097909;28;20059;-75
2021/07/07 10:00:49;;;;;;;6.00;2.20;;;20.60;68.00;;;;;;5097968;28;20062;-75
2021/07/07 10:03:36;;;;;;;4.85;2.00;;;20.60;67.90;;;;;;5097495;28;20058;-74
2021/07/07 10:06:22;;;;;;;7.85;2.28;;;20.60;68.70;;;;;;5096960;28;20048;-74
2021/07/07 10:09:08;;;;;;;4.22;2.13;;;20.60;68.00;;;;;;5096924;28;20040;-75
2021/07/07 10:11:36;;;;;;;6.57;2.38;;;20.60;67.90;;;;;;5097711;28;20048;-73
2021/07/07 10:14:02;;;;;;;5.43;2.13;;;20.60;67.90;;;;;;5097775;28;20056;-73
2021/07/07 10:16:33;;;;;;;5.45;1.63;;;20.70;68.10;;;;;;5097930;28;20047;-73
2021/07/07 10:19:20;;;;;;;5.30;1.73;;;20.70;68.10;;;;;;5097221;28;20059;-73
2021/07/07 10:21:47;;;;;;;5.47;1.85;;;20.70;68.10;;;;;;5097753;28;20375;-73
2021/07/07 10:24:15;;;;;;;7.32;1.88;;;20.70;67.70;;;;;;5097620;28;20052;-74
2021/07/07 10:26:42;;;;;;;3.63;1.48;;;20.70;67.70;;;;;;5097545;28;20040;-74
2021/07/07 10:29:09;;;;;;;6.05;1.60;;;20.60;67.00;;;;;;5098335;28;20044;-74
2021/07/07 10:31:48;;;;;;;3.30;1.77;;;20.60;67.20;;;;;;5097853;28;20466;-73
2021/07/07 10:34:19;;;;;;;7.22;2.00;;;20.60;67.00;;;;;;5097183;28;20040;-74
2021/07/07 10:36:45;;;;;;;9.88;2.45;;;20.60;66.90;;;;;;5097373;28;20052;-75
2021/07/07 10:39:13;;;;;;;11.18;2.47;;;20.60;67.20;;;;;;5097172;28;20052;-76
2021/07/07 10:41:45;;;;;;;8.07;2.42;;;20.60;67.40;;;;;;5097290;28;20131;-74
2021/07/07 10:44:24;;;;;;;12.68;2.72;;;20.60;67.30;;;;;;5098058;28;20324;-74
2021/07/07 10:47:13;;;;;;;12.50;2.70;;;20.60;67.10;;;;;;5097341;28;20048;-74
2021/07/07 10:49:52;;;;;;;7.35;2.58;;;20.60;66.70;;;;;;5097271;28;20040;-74
2021/07/07 10:52:47;;;;;;;12.02;2.13;;;20.60;66.90;;;;;;5097361;28;20171;-73
2021/07/07 10:55:15;;;;;;;10.63;2.47;;;20.60;67.10;;;;;;5084216;28;20056;-74
2021/07/07 10:57:42;;;;;;;6.30;2.05;;;20.60;67.20;;;;;;5096962;28;20044;-74
2021/07/07 11:00:33;;;;;;;5.25;2.08;;;20.70;67.20;;;;;;5096745;28;20047;-76
2021/07/07 11:03:30;;;;;;;5.95;2.13;;;20.70;66.70;;;;;;5096803;28;20097;-76
2021/07/07 11:05:56;;;;;;;9.95;3.75;;;20.70;66.40;;;;;;5095786;28;20353;-74
2021/07/07 11:08:22;;;;;;;7.63;3.80;;;20.70;66.90;;;;;;5096973;28;20048;-75
2021/07/07 11:10:59;;;;;;;6.38;3.30;;;20.60;68.20;;;;;;5096651;28;20070;-73
2021/07/07 11:13:25;;;;;;;6.93;3.75;;;20.60;68.70;;;;;;5096095;28;20064;-73
2021/07/07 11:15:51;;;;;;;6.20;2.90;;;20.60;68.80;;;;;;5096115;28;20474;-74
2021/07/07 11:18:19;;;;;;;6.40;2.72;;;20.50;68.70;;;;;;5096016;28;20119;-72
2021/07/07 11:20:54;;;;;;;5.70;3.03;;;20.50;68.80;;;;;;5096295;28;20121;-75
2021/07/07 11:23:20;;;;;;;6.03;2.30;;;20.50;68.70;;;;;;5096965;28;20047;-73
2021/07/07 11:25:46;;;;;;;4.57;2.63;;;20.60;68.80;;;;;;5096705;28;20432;-74
2021/07/07 11:28:16;;;;;;;5.32;2.50;;;20.50;68.80;;;;;;5095927;28;20067;-74
2021/07/07 11:30:42;;;;;;;7.30;2.22;;;20.60;68.90;;;;;;5096373;28;20119;-75
2021/07/07 11:33:08;;;;;;;3.33;1.90;;;20.60;68.90;;;;;;5096309;28;20051;-72
2021/07/07 11:35:37;;;;;;;3.67;2.00;;;20.60;69.00;;;;;;5096303;28;20163;-73
2021/07/07 11:38:05;;;;;;;5.78;2.28;;;20.60;69.10;;;;;;5095717;28;20206;-73
2021/07/07 11:40:36;;;;;;;3.35;1.98;;;20.60;69.10;;;;;;5096013;28;20040;-72
2021/07/07 11:43:07;;;;;;;3.63;1.70;;;20.60;69.10;;;;;;5096429;28;20123;-72
2021/07/07 11:45:39;;;;;;;3.83;1.60;;;20.70;69.20;;;;;;5095925;28;20432;-74
2021/07/07 11:48:35;;;;;;;5.65;1.95;;;20.70;69.20;;;;;;5096021;28;20439;-73
2021/07/07 11:51:22;;;;;;;5.10;1.77;;;20.70;69.20;;;;;;5094672;28;20063;-72
2021/07/07 11:53:50;;;;;;;4.63;2.00;;;20.70;69.30;;;;;;5095604;28;20051;-73
2021/07/07 11:56:20;;;;;;;3.53;1.50;;;20.70;69.30;;;;;;5095432;28;20044;-73
2021/07/07 11:58:59;;;;;;;8.65;2.28;;;20.70;69.20;;;;;;5095974;28;20439;-76
2021/07/07 12:01:33;;;;;;;4.18;2.22;;;20.70;69.20;;;;;;5096089;28;20138;-73
2021/07/07 12:03:59;;;;;;;4.70;2.35;;;20.70;69.30;;;;;;5095486;28;20051;-74
2021/07/07 12:06:35;;;;;;;2.88;1.65;;;20.80;69.40;;;;;;5095633;28;20343;-74
2021/07/07 12:09:18;;;;;;;4.55;2.08;;;20.80;69.40;;;;;;5096334;28;20458;-74
2021/07/07 12:12:05;;;;;;;3.60;1.95;;;20.80;69.40;;;;;;5095556;28;20063;-73
2021/07/07 12:14:41;;;;;;;3.55;1.67;;;20.80;69.50;;;;;;5095468;28;20082;-73
2021/07/07 12:17:07;;;;;;;4.60;1.77;;;20.80;69.50;;;;;;5095147;28;20048;-74
2021/07/07 12:19:33;;;;;;;2.72;1.77;;;20.80;69.50;;;;;;5095554;28;20039;-74
2021/07/07 12:22:02;;;;;;;5.55;1.92;;;20.80;69.50;;;;;;5095759;28;20048;-73
2021/07/07 12:24:30;;;;;;;2.03;1.45;;;20.80;69.60;;;;;;5096080;28;20040;-73
2021/07/07 12:27:00;;;;;;;2.35;1.42;;;20.90;69.60;;;;;;5095319;28;20047;-73
2021/07/07 12:29:30;;;;;;;3.15;1.58;;;20.80;69.60;;;;;;5095372;28;20115;-73
2021/07/07 12:32:06;;;;;;;4.10;1.90;;;20.90;69.60;;;;;;5095321;28;20048;-73
2021/07/07 12:34:38;;;;;;;3.70;1.70;;;20.90;69.60;;;;;;5095514;28;20120;-72
2021/07/07 12:37:16;;;;;;;3.17;1.95;;;20.90;69.70;;;;;;5094864;28;20048;-73
2021/07/07 12:39:52;;;;;;;2.53;1.75;;;20.90;69.70;;;;;;5095242;28;20040;-74
2021/07/07 12:42:24;;;;;;;2.78;1.67;;;20.90;69.70;;;;;;5095439;28;20043;-73
2021/07/07 12:44:50;;;;;;;3.05;1.85;;;20.90;69.70;;;;;;5094128;28;20070;-73
2021/07/07 12:47:19;;;;;;;2.90;1.40;;;20.90;69.70;;;;;;5095384;28;20067;-73
2021/07/07 12:49:48;;;;;;;2.72;1.67;;;20.90;69.70;;;;;;5095475;28;20116;-73
2021/07/07 12:52:29;;;;;;;3.88;1.73;;;20.90;69.70;;;;;;5095216;28;20052;-73
2021/07/07 12:55:11;;;;;;;2.58;1.58;;;20.90;70.30;;;;;;5094744;28;20048;-74